createdAt,value
2018-02-09T00:00:53.540Z,99.99
2018-02-09T00:01:52.985Z,99.99
2018-02-09T00:02:53.503Z,99.99
2018-02-09T00:03:53.045Z,99.99
2018-02-09T00:04:52.927Z,99.99
2018-02-09T00:05:53.113Z,99.99
2018-02-09T00:06:52.887Z,99.99
2018-02-09T00:07:53.854Z,99.99
2018-02-09T00:08:53.474Z,99.99
2018-02-09T00:09:52.833Z,99.99
2018-02-09T00:10:53.343Z,99.99
2018-02-09T00:11:52.810Z,99.99
2018-02-09T00:12:52.761Z,99.99
2018-02-09T00:13:52.795Z,99.99
2018-02-09T00:14:52.797Z,99.99
2018-02-09T00:15:53.313Z,99.99
2018-02-09T00:16:52.697Z,99.99
2018-02-09T00:17:53.164Z,99.99
2018-02-09T00:18:53.818Z,99.99
2018-02-09T00:19:52.754Z,99.99
2018-02-09T00:20:53.122Z,99.99
2018-02-09T00:21:53.008Z,99.99
2018-02-09T00:22:53.097Z,99.99
2018-02-09T00:23:52.504Z,99.99
2018-02-09T00:24:52.490Z,99.99
2018-02-09T00:25:52.560Z,99.99
2018-02-09T00:26:52.478Z,99.99
2018-02-09T00:27:52.440Z,99.99
2018-02-09T00:28:52.426Z,99.99
2018-02-09T00:29:52.950Z,99.99
2018-02-09T00:30:52.877Z,99.99
2018-02-09T00:31:52.836Z,99.99
2018-02-09T00:32:52.295Z,99.99
2018-02-09T00:33:52.285Z,99.99
2018-02-09T00:34:52.243Z,99.99
2018-02-09T00:35:52.220Z,99.99
2018-02-09T00:36:52.322Z,99.99
2018-02-09T00:37:52.759Z,99.99
2018-02-09T00:38:52.160Z,99.99
2018-02-09T00:39:52.682Z,99.99
2018-02-09T00:40:52.096Z,99.99
2018-02-09T00:41:52.649Z,99.99
2018-02-09T00:42:52.591Z,99.99
2018-02-09T00:43:52.026Z,99.99
2018-02-09T00:44:52.611Z,99.99
2018-02-09T00:45:52.002Z,99.99
2018-02-09T00:46:52.087Z,99.99
2018-02-09T00:47:51.943Z,99.99
2018-02-09T00:48:51.929Z,99.99
2018-02-09T00:49:51.903Z,99.99
2018-02-09T00:50:52.444Z,99.99
2018-02-09T00:51:52.432Z,99.99
2018-02-09T00:52:52.008Z,99.99
2018-02-09T00:53:51.797Z,99.99
2018-02-09T00:54:51.779Z,99.99
2018-02-09T00:55:52.332Z,99.99
2018-02-09T00:56:51.836Z,99.99
2018-02-09T00:57:51.767Z,99.99
2018-02-09T00:58:51.777Z,99.99
2018-02-09T00:59:51.660Z,99.99
2018-02-09T01:00:52.214Z,99.99
2018-02-09T01:01:52.237Z,99.99
2018-02-09T01:02:51.639Z,99.99
2018-02-09T01:03:52.215Z,99.99
2018-02-09T01:04:52.327Z,99.99
2018-02-09T01:05:51.591Z,99.99
2018-02-09T01:06:51.508Z,99.99
2018-02-09T01:07:51.505Z,99.99
2018-02-09T01:08:51.613Z,99.99
2018-02-09T01:09:51.538Z,99.99
2018-02-09T01:10:51.514Z,99.99
2018-02-09T01:11:51.932Z,99.99
2018-02-09T01:12:52.149Z,99.99
2018-02-09T01:13:51.869Z,99.99
2018-02-09T01:14:51.310Z,99.99
2018-02-09T01:15:51.932Z,99.99
2018-02-09T01:16:51.279Z,99.99
2018-02-09T01:17:51.245Z,99.99
2018-02-09T01:18:51.742Z,99.99
2018-02-09T01:19:53.322Z,99.99
2018-02-09T01:20:51.740Z,99.99
2018-02-09T01:21:51.670Z,99.99
2018-02-09T01:22:51.855Z,99.99
2018-02-09T01:23:51.094Z,99.99
2018-02-09T01:24:51.093Z,99.99
2018-02-09T01:25:51.257Z,99.99
2018-02-09T01:26:51.043Z,99.99
2018-02-09T01:27:51.533Z,99.99
2018-02-09T01:28:50.976Z,99.99
2018-02-09T01:29:50.994Z,99.99
2018-02-09T01:30:51.933Z,99.99
2018-02-09T01:31:51.535Z,99.99
2018-02-09T01:32:51.425Z,99.99
2018-02-09T01:33:51.442Z,99.99
2018-02-09T01:34:50.845Z,99.99
2018-02-09T01:35:50.813Z,99.99
2018-02-09T01:36:50.828Z,99.99
2018-02-09T01:37:51.426Z,99.99
2018-02-09T01:38:50.780Z,99.99
2018-02-09T01:39:50.706Z,99.99
2018-02-09T01:40:50.689Z,99.99
2018-02-09T01:41:50.677Z,99.99
2018-02-09T01:42:50.756Z,99.99
2018-02-09T01:43:50.611Z,99.99
2018-02-09T01:44:51.126Z,99.99
2018-02-09T01:45:51.145Z,99.99
2018-02-09T01:46:50.640Z,99.99
2018-02-09T01:47:51.046Z,99.99
2018-02-09T01:48:51.130Z,99.99
2018-02-09T01:49:50.469Z,99.99
2018-02-09T01:50:50.988Z,99.99
2018-02-09T01:51:50.443Z,99.99
2018-02-09T01:52:50.394Z,99.99
2018-02-09T01:53:50.482Z,99.99
2018-02-09T01:54:50.978Z,99.99
2018-02-09T01:55:50.345Z,99.99
2018-02-09T01:56:50.861Z,99.99
2018-02-09T01:57:50.325Z,99.99
2018-02-09T01:58:51.225Z,99.99
2018-02-09T01:59:50.340Z,99.99
2018-02-09T02:00:50.939Z,99.99
2018-02-09T02:01:50.252Z,99.99
2018-02-09T02:02:50.640Z,99.99
2018-02-09T02:03:50.131Z,99.99
2018-02-09T02:04:50.283Z,99.99
2018-02-09T02:05:50.395Z,99.99
2018-02-09T02:06:50.471Z,99.99
2018-02-09T02:07:50.608Z,99.99
2018-02-09T02:08:50.496Z,99.99
2018-02-09T02:09:50.658Z,99.99
2018-02-09T02:10:50.687Z,99.99
2018-02-09T02:11:50.595Z,99.99
2018-02-09T02:12:49.955Z,99.99
2018-02-09T02:13:50.496Z,99.99
2018-02-09T02:14:50.066Z,99.99
2018-02-09T02:15:49.957Z,99.99
2018-02-09T02:16:49.997Z,99.99
2018-02-09T02:17:49.815Z,99.99
2018-02-09T02:18:49.817Z,99.99
2018-02-09T02:19:50.280Z,99.99
2018-02-09T02:20:49.835Z,99.99
2018-02-09T02:21:49.837Z,99.99
2018-02-09T02:22:50.294Z,99.99
2018-02-09T02:23:50.096Z,99.99
2018-02-09T02:24:50.258Z,99.99
2018-02-09T02:25:50.126Z,99.99
2018-02-09T02:26:49.924Z,99.99
2018-02-09T02:27:49.616Z,99.99
2018-02-09T02:28:49.607Z,99.99
2018-02-09T02:29:50.037Z,99.99
2018-02-09T02:30:50.148Z,99.99
2018-02-09T02:31:50.002Z,99.99
2018-02-09T02:32:50.228Z,99.99
2018-02-09T02:33:49.968Z,99.99
2018-02-09T02:34:50.349Z,99.99
2018-02-09T02:35:49.990Z,99.99
2018-02-09T02:36:49.435Z,99.99
2018-02-09T02:37:49.372Z,99.99
2018-02-09T02:38:49.449Z,99.99
2018-02-09T02:39:49.780Z,99.99
2018-02-09T02:40:49.539Z,99.99
2018-02-09T02:41:49.204Z,99.99
2018-02-09T02:42:49.795Z,99.99
2018-02-09T02:43:49.854Z,99.99
2018-02-09T02:44:49.292Z,99.99
2018-02-09T02:45:49.653Z,99.99
2018-02-09T02:46:49.544Z,99.99
2018-02-09T02:47:49.483Z,99.99
2018-02-09T02:48:49.422Z,99.99
2018-02-09T02:49:49.132Z,99.99
2018-02-09T02:50:49.097Z,99.99
2018-02-09T02:51:49.610Z,99.99
2018-02-09T02:52:49.080Z,99.99
2018-02-09T02:53:49.174Z,99.99
2018-02-09T02:54:49.751Z,99.99
2018-02-09T02:55:49.269Z,99.99
2018-02-09T02:56:49.326Z,99.99
2018-02-09T02:57:49.297Z,99.99
2018-02-09T02:58:49.276Z,99.99
2018-02-09T02:59:50.025Z,99.99
2018-02-09T03:00:49.186Z,99.99
2018-02-09T03:01:49.229Z,99.99
2018-02-09T03:02:49.218Z,99.99
2018-02-09T03:03:48.776Z,99.99
2018-02-09T03:04:49.388Z,99.99
2018-02-09T03:05:49.091Z,99.99
2018-02-09T03:06:48.787Z,99.99
2018-02-09T03:07:48.703Z,99.99
2018-02-09T03:08:49.005Z,99.99
2018-02-09T03:09:48.967Z,99.99
2018-02-09T03:10:49.079Z,99.99
2018-02-09T03:11:48.974Z,99.99
2018-02-09T03:12:48.719Z,99.99
2018-02-09T03:13:48.898Z,99.99
2018-02-09T03:14:48.545Z,99.99
2018-02-09T03:15:48.922Z,99.99
2018-02-09T03:16:49.139Z,99.99
2018-02-09T03:17:48.752Z,99.99
2018-02-09T03:18:48.481Z,99.99
2018-02-09T03:19:48.433Z,99.99
2018-02-09T03:20:48.941Z,99.99
2018-02-09T03:21:48.668Z,99.99
2018-02-09T03:22:48.404Z,99.99
2018-02-09T03:23:48.550Z,99.99
2018-02-09T03:24:48.302Z,99.99
2018-02-09T03:25:48.572Z,99.99
2018-02-09T03:26:48.251Z,99.99
2018-02-09T03:27:48.771Z,99.99
2018-02-09T03:28:48.346Z,99.99
2018-02-09T03:29:48.114Z,99.99
2018-02-09T03:30:48.664Z,99.99
2018-02-09T03:31:48.005Z,99.99
2018-02-09T03:32:47.997Z,99.99
2018-02-09T03:33:48.070Z,99.99
2018-02-09T03:34:48.512Z,99.99
2018-02-09T03:35:47.917Z,99.99
2018-02-09T03:36:47.885Z,99.99
2018-02-09T03:37:48.373Z,99.99
2018-02-09T03:38:47.936Z,99.99
2018-02-09T03:39:47.830Z,99.99
2018-02-09T03:40:48.064Z,99.99
2018-02-09T03:41:47.722Z,99.99
2018-02-09T03:42:47.745Z,99.99
2018-02-09T03:43:47.873Z,99.99
2018-02-09T03:44:48.196Z,99.99
2018-02-09T03:45:47.616Z,99.99
2018-02-09T03:46:47.701Z,99.99
2018-02-09T03:47:47.610Z,99.99
2018-02-09T03:48:47.711Z,99.99
2018-02-09T03:49:47.521Z,99.99
2018-02-09T03:50:47.526Z,99.99
2018-02-09T03:51:47.511Z,99.99
2018-02-09T03:52:47.466Z,99.99
2018-02-09T03:53:47.471Z,99.99
2018-02-09T03:54:47.500Z,99.99
2018-02-09T03:55:47.397Z,99.99
2018-02-09T03:56:47.410Z,99.99
2018-02-09T03:57:47.361Z,99.99
2018-02-09T03:58:47.848Z,99.99
2018-02-09T03:59:47.349Z,99.99
2018-02-09T04:00:47.411Z,99.99
2018-02-09T04:01:47.311Z,99.99
2018-02-09T04:02:47.203Z,99.99
2018-02-09T04:03:47.184Z,99.99
2018-02-09T04:04:47.158Z,99.99
2018-02-09T04:05:47.779Z,99.99
2018-02-09T04:06:47.114Z,99.99
2018-02-09T04:07:47.075Z,99.99
2018-02-09T04:08:47.043Z,99.99
2018-02-09T04:09:47.571Z,99.99
2018-02-09T04:10:47.095Z,99.99
2018-02-09T04:11:46.991Z,99.99
2018-02-09T04:12:46.946Z,99.99
2018-02-09T04:13:47.475Z,99.99
2018-02-09T04:14:46.905Z,99.99
2018-02-09T04:15:46.964Z,99.99
2018-02-09T04:16:46.845Z,99.99
2018-02-09T04:17:46.826Z,99.99
2018-02-09T04:18:46.813Z,99.99
2018-02-09T04:19:46.811Z,99.99
2018-02-09T04:20:46.845Z,99.99
2018-02-09T04:21:46.737Z,99.99
2018-02-09T04:22:46.744Z,99.99
2018-02-09T04:23:46.668Z,99.99
2018-02-09T04:24:46.657Z,99.99
2018-02-09T04:25:46.731Z,99.99
2018-02-09T04:26:46.599Z,99.99
2018-02-09T04:27:46.577Z,99.99
2018-02-09T04:28:46.549Z,99.99
2018-02-09T04:29:46.518Z,99.99
2018-02-09T04:30:46.515Z,99.99
2018-02-09T04:31:46.590Z,99.99
2018-02-09T04:32:46.467Z,99.99
2018-02-09T04:33:46.436Z,99.99
2018-02-09T04:34:46.426Z,99.99
2018-02-09T04:35:46.448Z,99.99
2018-02-09T04:36:46.352Z,99.99
2018-02-09T04:37:46.501Z,99.99
2018-02-09T04:38:46.315Z,99.99
2018-02-09T04:39:46.292Z,99.99
2018-02-09T04:40:46.249Z,99.99
2018-02-09T04:41:46.238Z,99.99
2018-02-09T04:42:46.313Z,99.99
2018-02-09T04:43:46.190Z,99.99
2018-02-09T04:44:46.140Z,99.99
2018-02-09T04:45:46.138Z,99.99
2018-02-09T04:46:48.462Z,99.99
2018-02-09T04:47:46.181Z,99.99
2018-02-09T04:48:46.043Z,99.99
2018-02-09T04:49:48.105Z,99.99
2018-02-09T04:50:46.002Z,99.99
2018-02-09T04:51:45.988Z,99.99
2018-02-09T04:52:46.060Z,99.99
2018-02-09T04:53:45.930Z,99.99
2018-02-09T04:54:45.895Z,99.99
2018-02-09T04:55:45.873Z,99.99
2018-02-09T04:56:45.846Z,99.99
2018-02-09T04:57:45.927Z,99.99
2018-02-09T04:58:45.796Z,99.99
2018-02-09T04:59:45.781Z,99.99
2018-02-09T05:00:45.746Z,99.99
2018-02-09T05:01:45.733Z,99.99
2018-02-09T05:02:45.799Z,99.99
2018-02-09T05:03:45.664Z,99.99
2018-02-09T05:04:45.645Z,99.31
2018-02-09T05:05:45.628Z,99.99
2018-02-09T05:06:45.597Z,99.69
2018-02-09T05:07:45.665Z,98.25
2018-02-09T05:08:45.548Z,97.09
2018-02-09T05:09:45.525Z,98.25
2018-02-09T05:10:45.500Z,98.54
2018-02-09T05:11:45.481Z,99.89
2018-02-09T05:12:45.454Z,99.99
2018-02-09T05:13:45.567Z,99.99
2018-02-09T05:14:45.402Z,99.65
2018-02-09T05:15:45.369Z,99.99
2018-02-09T05:16:45.341Z,99.50
2018-02-09T05:17:45.319Z,99.99
2018-02-09T05:18:45.308Z,99.99
2018-02-09T05:19:45.369Z,99.99
2018-02-09T05:20:45.238Z,99.99
2018-02-09T05:21:45.287Z,99.99
2018-02-09T05:22:45.191Z,99.99
2018-02-09T05:23:45.178Z,99.99
2018-02-09T05:24:45.247Z,99.99
2018-02-09T05:25:45.125Z,99.99
2018-02-09T05:26:45.110Z,99.99
2018-02-09T05:30:00.175Z,99.99
2018-02-09T05:31:00.011Z,99.99
2018-02-09T05:31:59.900Z,99.99
2018-02-09T05:32:59.884Z,99.99
2018-02-09T05:33:59.870Z,99.99
2018-02-09T05:34:59.937Z,99.99
2018-02-09T05:35:59.820Z,99.99
2018-02-09T05:36:59.770Z,99.99
2018-02-09T05:37:59.762Z,99.99
2018-02-09T05:38:59.764Z,99.99
2018-02-09T05:39:59.806Z,97.52
2018-02-09T05:40:59.816Z,99.99
2018-02-09T05:41:59.693Z,98.10
2018-02-09T05:42:59.616Z,98.78
2018-02-09T05:43:59.616Z,95.88
2018-02-09T05:44:59.675Z,94.62
2018-02-09T05:45:59.573Z,96.41
2018-02-09T05:46:59.532Z,93.71
2018-02-09T05:47:59.513Z,92.74
2018-02-09T05:48:59.486Z,93.41
2018-02-09T05:49:59.480Z,92.83
2018-02-09T05:50:59.545Z,93.61
2018-02-09T05:51:59.396Z,95.35
2018-02-09T05:52:59.377Z,94.96
2018-02-09T05:53:59.357Z,94.96
2018-02-09T05:54:59.316Z,94.09
2018-02-09T05:55:59.298Z,94.38
2018-02-09T05:57:00.290Z,96.51
2018-02-09T05:57:59.297Z,93.18
2018-02-09T05:59:00.779Z,93.71
2018-02-09T06:00:00.439Z,92.69
2018-02-09T06:01:00.576Z,93.03
2018-02-09T06:02:00.453Z,92.45
2018-02-09T06:03:01.120Z,93.47
2018-02-09T06:03:59.323Z,92.02
2018-02-09T06:04:59.062Z,91.92
2018-02-09T06:05:59.043Z,89.84
2018-02-09T06:06:59.030Z,89.07
2018-02-09T06:07:58.992Z,93.03
2018-02-09T06:08:59.060Z,91.29
2018-02-09T06:09:58.941Z,91.29
2018-02-09T06:10:58.913Z,91.87
2018-02-09T06:11:58.900Z,90.91
2018-02-09T06:12:58.864Z,91.00
2018-02-09T06:13:58.944Z,90.13
2018-02-09T06:14:58.824Z,90.61
2018-02-09T06:15:58.782Z,90.13
2018-02-09T06:16:58.772Z,91.09
2018-02-09T06:17:58.735Z,89.84
2018-02-09T06:18:58.802Z,89.55
2018-02-09T06:19:58.686Z,90.03
2018-02-09T06:20:58.656Z,90.13
2018-02-09T06:21:58.637Z,89.26
2018-02-09T06:22:58.629Z,88.59
2018-02-09T06:23:58.589Z,88.20
2018-02-09T06:24:58.657Z,88.20
2018-02-09T06:25:58.535Z,90.42
2018-02-09T06:26:58.506Z,90.23
2018-02-09T06:27:58.477Z,89.84
2018-02-09T06:28:58.472Z,90.81
2018-02-09T06:29:58.425Z,87.71
2018-02-09T06:30:58.498Z,87.27
2018-02-09T06:31:58.386Z,88.24
2018-02-09T06:32:58.345Z,86.41
2018-02-09T06:33:58.336Z,87.18
2018-02-09T06:34:58.298Z,85.63
2018-02-09T06:35:58.285Z,86.51
2018-02-09T06:36:58.349Z,86.31
2018-02-09T06:37:58.230Z,84.86
2018-02-09T06:38:58.200Z,83.51
2018-02-09T06:39:58.180Z,83.74
2018-02-09T06:40:58.156Z,84.32
2018-02-09T06:41:58.220Z,84.22
2018-02-09T06:42:58.110Z,83.45
2018-02-09T06:43:58.091Z,83.36
2018-02-09T06:44:58.039Z,83.26
2018-02-09T06:45:58.020Z,82.10
2018-02-09T06:46:58.109Z,81.90
2018-02-09T06:47:57.959Z,82.00
2018-02-09T06:48:57.950Z,81.23
2018-02-09T06:49:57.921Z,80.36
2018-02-09T06:50:57.909Z,81.52
2018-02-09T06:51:57.970Z,80.65
2018-02-09T06:52:57.928Z,80.07
2018-02-09T06:53:57.839Z,79.87
2018-02-09T06:54:57.792Z,80.59
2018-02-09T06:55:57.772Z,80.59
2018-02-09T06:56:57.834Z,80.74
2018-02-09T06:57:57.713Z,81.32
2018-02-09T06:58:57.694Z,81.23
2018-02-09T06:59:57.664Z,81.62
2018-02-09T07:00:57.633Z,82.29
2018-02-09T07:01:57.625Z,82.68
2018-02-09T07:02:57.691Z,81.90
2018-02-09T07:03:57.571Z,83.74
2018-02-09T07:04:57.536Z,83.80
2018-02-09T07:05:57.522Z,83.12
2018-02-09T07:06:57.486Z,84.09
2018-02-09T07:07:57.457Z,84.19
2018-02-09T07:08:57.545Z,84.38
2018-02-09T07:09:57.406Z,83.99
2018-02-09T07:10:57.403Z,83.80
2018-02-09T07:11:57.357Z,84.86
2018-02-09T07:12:57.345Z,83.03
2018-02-09T07:13:57.318Z,83.22
2018-02-09T07:14:57.392Z,83.36
2018-02-09T07:15:57.259Z,84.90
2018-02-09T07:16:57.228Z,83.70
2018-02-09T07:17:57.217Z,84.28
2018-02-09T07:18:57.177Z,85.05
2018-02-09T07:19:57.277Z,84.09
2018-02-09T07:20:57.132Z,83.80
2018-02-09T07:21:57.114Z,83.36
2018-02-09T07:22:57.081Z,83.99
2018-02-09T07:23:57.059Z,84.09
2018-02-09T07:24:57.128Z,83.99
2018-02-09T07:25:57.010Z,82.64
2018-02-09T07:26:56.980Z,83.51
2018-02-09T07:27:56.953Z,83.03
2018-02-09T07:28:56.940Z,83.41
2018-02-09T07:29:57.000Z,81.87
2018-02-09T07:30:56.959Z,82.83
2018-02-09T07:31:56.864Z,81.67
2018-02-09T07:32:56.874Z,81.09
2018-02-09T07:33:56.823Z,82.73
2018-02-09T07:34:56.782Z,82.64
2018-02-09T07:35:56.855Z,83.41
2018-02-09T07:36:56.724Z,81.57
2018-02-09T07:37:56.715Z,81.29
2018-02-09T07:38:56.680Z,82.64
2018-02-09T07:39:56.662Z,82.35
2018-02-09T07:40:56.732Z,81.87
2018-02-09T07:41:56.632Z,82.25
2018-02-09T07:42:56.574Z,79.78
2018-02-09T07:43:56.546Z,79.20
2018-02-09T07:44:56.536Z,79.10
2018-02-09T07:45:56.607Z,79.20
2018-02-09T07:46:56.484Z,79.87
2018-02-09T07:47:56.446Z,79.49
2018-02-09T07:48:56.427Z,79.87
2018-02-09T07:49:56.397Z,80.26
2018-02-09T07:50:56.366Z,78.91
2018-02-09T07:51:56.459Z,79.39
2018-02-09T07:52:56.317Z,79.00
2018-02-09T07:53:56.306Z,79.00
2018-02-09T07:54:56.268Z,80.16
2018-02-09T07:55:56.255Z,79.49
2018-02-09T07:56:56.316Z,79.45
2018-02-09T07:57:56.240Z,79.74
2018-02-09T07:58:56.168Z,79.35
2018-02-09T07:59:56.190Z,79.29
2018-02-09T08:00:56.118Z,79.29
2018-02-09T08:01:56.188Z,78.52
2018-02-09T08:02:56.128Z,78.33
2018-02-09T08:03:56.050Z,78.81
2018-02-09T08:04:56.011Z,79.00
2018-02-09T08:05:55.990Z,78.23
2018-02-09T08:06:56.077Z,79.68
2018-02-09T08:07:55.940Z,79.35
2018-02-09T08:08:55.933Z,78.38
2018-02-09T08:09:55.890Z,78.29
2018-02-09T08:10:55.861Z,78.58
2018-02-09T08:11:55.847Z,77.80
2018-02-09T08:12:55.932Z,77.65
2018-02-09T08:13:55.792Z,77.84
2018-02-09T08:14:55.761Z,79.49
2018-02-09T08:15:55.743Z,77.61
2018-02-09T08:16:55.714Z,78.96
2018-02-09T08:17:55.801Z,77.80
2018-02-09T08:18:55.664Z,79.16
2018-02-09T08:19:55.642Z,78.09
2018-02-09T08:20:55.630Z,79.25
2018-02-09T08:21:55.585Z,80.38
2018-02-09T08:22:55.685Z,80.12
2018-02-09T08:23:55.536Z,80.47
2018-02-09T08:24:55.521Z,81.53
2018-02-09T08:25:55.496Z,81.92
2018-02-09T08:26:55.472Z,81.40
2018-02-09T08:27:55.571Z,81.92
2018-02-09T08:28:55.593Z,80.82
2018-02-09T08:29:55.386Z,79.56
2018-02-09T08:30:55.367Z,79.50
2018-02-09T08:31:55.337Z,79.22
2018-02-09T08:32:55.306Z,78.83
2018-02-09T08:33:55.278Z,78.06
2018-02-09T08:34:55.360Z,79.70
2018-02-09T08:35:55.226Z,79.02
2018-02-09T08:36:55.226Z,78.25
2018-02-09T08:37:55.178Z,78.34
2018-02-09T08:38:55.170Z,78.15
2018-02-09T08:39:55.249Z,77.86
2018-02-09T08:40:55.103Z,78.15
2018-02-09T08:41:55.080Z,78.73
2018-02-09T08:42:55.063Z,79.22
2018-02-09T08:43:55.029Z,79.02
2018-02-09T08:44:55.110Z,78.25
2018-02-09T08:45:54.988Z,79.80
2018-02-09T08:46:54.956Z,79.22
2018-02-09T08:47:54.932Z,79.80
2018-02-09T08:48:54.901Z,80.24
2018-02-09T08:49:54.872Z,79.22
2018-02-09T08:50:55.001Z,78.15
2018-02-09T08:51:54.873Z,79.41
2018-02-09T08:52:54.800Z,79.31
2018-02-09T08:53:54.786Z,79.75
2018-02-09T08:54:54.741Z,79.50
2018-02-09T08:55:54.822Z,78.79
2018-02-09T08:56:54.691Z,78.31
2018-02-09T08:57:54.695Z,80.57
2018-02-09T08:58:54.661Z,79.12
2018-02-09T08:59:54.624Z,78.99
2018-02-09T09:00:54.703Z,79.37
2018-02-09T09:01:54.578Z,78.15
2018-02-09T09:02:54.553Z,78.54
2018-02-09T09:03:54.528Z,77.96
2018-02-09T09:04:54.492Z,79.66
2018-02-09T09:05:54.567Z,79.22
2018-02-09T09:06:54.455Z,77.86
2018-02-09T09:07:54.413Z,77.86
2018-02-09T09:08:54.387Z,77.73
2018-02-09T09:09:54.426Z,78.11
2018-02-09T09:10:54.335Z,77.00
2018-02-09T09:11:54.417Z,77.57
2018-02-09T09:12:54.286Z,77.09
2018-02-09T09:13:54.265Z,74.87
2018-02-09T09:14:54.238Z,75.26
2018-02-09T09:15:54.224Z,75.35
2018-02-09T09:16:54.286Z,75.29
2018-02-09T09:17:54.159Z,75.45
2018-02-09T09:18:54.136Z,74.87
2018-02-09T09:19:54.109Z,75.64
2018-02-09T09:20:54.146Z,74.96
2018-02-09T09:21:54.058Z,75.64
2018-02-09T09:22:54.148Z,75.26
2018-02-09T09:23:54.009Z,76.80
2018-02-09T09:24:53.990Z,76.12
2018-02-09T09:25:54.010Z,77.76
2018-02-09T09:26:53.928Z,76.90
2018-02-09T09:27:53.920Z,76.90
2018-02-09T09:28:53.991Z,77.67
2018-02-09T09:29:53.881Z,75.26
2018-02-09T09:30:53.846Z,74.00
2018-02-09T09:31:53.800Z,73.07
2018-02-09T09:32:53.847Z,73.36
2018-02-09T09:33:53.862Z,72.30
2018-02-09T09:34:53.722Z,72.49
2018-02-09T09:35:53.701Z,70.88
2018-02-09T09:36:53.672Z,70.30
2018-02-09T09:37:53.670Z,69.04
2018-02-09T09:38:53.724Z,69.46
2018-02-09T09:39:53.612Z,70.14
2018-02-09T09:40:53.571Z,70.20
2018-02-09T09:41:53.542Z,70.04
2018-02-09T09:42:53.523Z,70.34
2018-02-09T09:43:53.599Z,69.92
2018-02-09T09:44:53.484Z,70.82
2018-02-09T09:45:53.454Z,70.68
2018-02-09T09:46:53.433Z,70.92
2018-02-09T09:47:53.395Z,71.50
2018-02-09T09:48:53.366Z,71.88
2018-02-09T09:49:53.497Z,71.98
2018-02-09T09:50:53.315Z,72.46
2018-02-09T09:51:53.296Z,71.88
2018-02-09T09:52:53.266Z,71.78
2018-02-09T09:53:53.254Z,73.24
2018-02-09T09:54:53.217Z,74.30
2018-02-09T09:55:53.288Z,73.49
2018-02-09T09:56:53.165Z,74.17
2018-02-09T09:57:53.137Z,73.59
2018-02-09T09:58:53.117Z,73.97
2018-02-09T09:59:53.138Z,73.39
2018-02-09T10:00:53.078Z,73.14
2018-02-09T10:01:53.139Z,73.04
2018-02-09T10:02:53.027Z,71.88
2018-02-09T10:03:52.987Z,72.75
2018-02-09T10:04:52.976Z,73.24
2018-02-09T10:05:52.938Z,73.14
2018-02-09T10:06:53.009Z,72.36
2018-02-09T10:07:52.890Z,73.72
2018-02-09T10:08:52.870Z,71.78
2018-02-09T10:09:52.841Z,72.95
2018-02-09T10:10:52.811Z,72.95
2018-02-09T10:11:52.889Z,72.36
2018-02-09T10:12:52.761Z,72.66
2018-02-09T10:13:52.730Z,72.36
2018-02-09T10:14:52.713Z,72.75
2018-02-09T10:15:52.700Z,74.01
2018-02-09T10:16:52.760Z,73.43
2018-02-09T10:17:52.634Z,72.75
2018-02-09T10:18:52.624Z,73.43
2018-02-09T10:19:52.582Z,74.11
2018-02-09T10:20:52.565Z,74.30
2018-02-09T10:21:52.636Z,73.04
2018-02-09T10:22:52.523Z,73.43
2018-02-09T10:23:52.495Z,73.53
2018-02-09T10:24:52.475Z,73.68
2018-02-09T10:25:52.434Z,73.49
2018-02-09T10:26:52.422Z,74.94
2018-02-09T10:27:52.525Z,73.49
2018-02-09T10:28:52.366Z,74.46
2018-02-09T10:29:52.337Z,74.46
2018-02-09T10:30:52.304Z,74.07
2018-02-09T10:31:52.303Z,73.97
2018-02-09T10:32:52.265Z,74.17
2018-02-09T10:33:52.336Z,74.21
2018-02-09T10:34:52.206Z,74.85
2018-02-09T10:35:52.187Z,74.94
2018-02-09T10:36:52.155Z,75.43
2018-02-09T10:37:52.176Z,74.94
2018-02-09T10:38:52.108Z,75.75
2018-02-09T10:39:52.189Z,75.75
2018-02-09T10:40:52.058Z,75.85
2018-02-09T10:41:52.027Z,77.55
2018-02-09T10:42:52.012Z,77.07
2018-02-09T10:43:51.977Z,78.23
2018-02-09T10:44:52.064Z,78.33
2018-02-09T10:45:51.941Z,79.45
2018-02-09T10:46:51.919Z,79.45
2018-02-09T10:47:51.900Z,79.74
2018-02-09T10:48:51.861Z,80.03
2018-02-09T10:49:51.929Z,79.45
2018-02-09T10:50:51.820Z,78.87
2018-02-09T10:51:51.791Z,79.35
2018-02-09T10:52:51.753Z,78.03
2018-02-09T10:53:51.746Z,78.13
2018-02-09T10:54:51.800Z,78.42
2018-02-09T10:55:51.692Z,78.67
2018-02-09T10:56:51.650Z,78.38
2018-02-09T10:57:51.643Z,76.01
2018-02-09T10:58:51.606Z,76.59
2018-02-09T10:59:51.682Z,78.33
2018-02-09T11:00:51.555Z,77.61
2018-02-09T11:01:51.531Z,77.13
2018-02-09T11:02:51.505Z,75.39
2018-02-09T11:03:51.494Z,74.90
2018-02-09T11:04:51.482Z,76.97
2018-02-09T11:05:51.579Z,76.59
2018-02-09T11:06:51.414Z,75.10
2018-02-09T11:07:51.388Z,75.20
2018-02-09T11:08:51.373Z,75.33
2018-02-09T11:09:51.328Z,73.78
2018-02-09T11:10:51.304Z,73.30
2018-02-09T11:11:51.377Z,73.68
2018-02-09T11:12:51.266Z,73.20
2018-02-09T11:13:51.245Z,72.72
2018-02-09T11:14:51.207Z,72.24
2018-02-09T11:15:51.188Z,72.52
2018-02-09T11:16:51.274Z,71.50
2018-02-09T11:17:51.128Z,71.40
2018-02-09T11:18:51.097Z,71.50
2018-02-09T11:19:51.093Z,71.11
2018-02-09T11:20:51.056Z,71.20
2018-02-09T11:21:51.129Z,71.40
2018-02-09T11:22:51.027Z,71.11
2018-02-09T11:23:50.976Z,70.24
2018-02-09T11:24:50.967Z,70.62
2018-02-09T11:25:50.941Z,70.04
2018-02-09T11:26:50.997Z,70.72
2018-02-09T11:27:50.894Z,70.27
2018-02-09T11:28:50.854Z,71.11
2018-02-09T11:29:50.830Z,71.40
2018-02-09T11:30:50.816Z,71.11
2018-02-09T11:31:50.889Z,69.85
2018-02-09T11:32:50.769Z,71.11
2018-02-09T11:33:50.720Z,70.82
2018-02-09T11:34:50.719Z,71.59
2018-02-09T11:35:50.670Z,71.40
2018-02-09T11:36:50.751Z,72.27
2018-02-09T11:37:50.620Z,72.75
2018-02-09T11:38:50.608Z,73.04
2018-02-09T11:39:50.580Z,73.91
2018-02-09T11:40:50.542Z,74.59
2018-02-09T11:41:50.622Z,74.79
2018-02-09T11:42:50.494Z,74.88
2018-02-09T11:43:50.473Z,75.07
2018-02-09T11:44:50.453Z,75.52
2018-02-09T11:45:50.432Z,75.91
2018-02-09T11:46:50.420Z,76.59
2018-02-09T11:47:50.485Z,76.49
2018-02-09T11:48:50.366Z,78.23
2018-02-09T11:49:50.328Z,78.19
2018-02-09T11:50:50.294Z,78.38
2018-02-09T11:51:50.277Z,77.13
2018-02-09T11:52:50.388Z,78.19
2018-02-09T11:53:50.328Z,76.64
2018-02-09T11:54:50.207Z,78.00
2018-02-09T11:55:50.174Z,77.90
2018-02-09T11:56:50.147Z,78.87
2018-02-09T11:57:50.119Z,78.09
2018-02-09T11:58:50.185Z,78.38
2018-02-09T11:59:50.166Z,79.31
2018-02-09T12:00:50.063Z,79.02
2018-02-09T12:01:50.029Z,80.38
2018-02-09T12:02:50.026Z,79.31
2018-02-09T12:03:49.979Z,79.02
2018-02-09T12:04:49.939Z,80.38
2018-02-09T12:05:50.068Z,79.22
2018-02-09T12:06:49.909Z,79.31
2018-02-09T12:07:49.900Z,79.70
2018-02-09T12:08:49.843Z,79.70
2018-02-09T12:09:49.890Z,79.22
2018-02-09T12:10:49.899Z,79.70
2018-02-09T12:11:49.772Z,78.64
2018-02-09T12:12:49.741Z,78.67
2018-02-09T12:13:49.733Z,78.29
2018-02-09T12:14:49.770Z,77.71
2018-02-09T12:15:49.761Z,78.77
2018-02-09T12:16:49.692Z,77.80
2018-02-09T12:17:49.610Z,78.09
2018-02-09T12:18:49.601Z,78.52
2018-02-09T12:19:49.567Z,78.03
2018-02-09T12:20:49.649Z,77.94
2018-02-09T12:21:49.512Z,77.55
2018-02-09T12:22:49.558Z,78.33
2018-02-09T12:23:49.476Z,78.52
2018-02-09T12:24:49.432Z,78.52
2018-02-09T12:25:49.424Z,78.81
2018-02-09T12:26:49.486Z,78.13
2018-02-09T12:27:49.366Z,79.00
2018-02-09T12:28:49.335Z,78.23
2018-02-09T12:29:49.373Z,79.00
2018-02-09T12:30:49.284Z,79.10
2018-02-09T12:31:49.374Z,79.29
2018-02-09T12:32:49.235Z,78.81
2018-02-09T12:33:49.228Z,78.42
2018-02-09T12:34:49.188Z,78.03
2018-02-09T12:35:49.157Z,78.81
2018-02-09T12:36:49.274Z,78.46
2018-02-09T12:37:49.106Z,79.14
2018-02-09T12:38:49.085Z,79.14
2018-02-09T12:39:49.056Z,79.14
2018-02-09T12:40:49.088Z,79.43
2018-02-09T12:41:49.022Z,78.17
2018-02-09T12:42:49.088Z,78.75
2018-02-09T12:43:48.997Z,78.99
2018-02-09T12:44:48.927Z,77.63
2018-02-09T12:45:48.918Z,77.63
2018-02-09T12:46:48.901Z,78.41
2018-02-09T12:47:48.968Z,78.02
2018-02-09T12:48:48.838Z,78.41
2018-02-09T12:49:48.827Z,78.25
2018-02-09T12:50:48.784Z,77.92
2018-02-09T12:51:48.776Z,77.28
2018-02-09T12:52:48.836Z,77.28
2018-02-09T12:53:48.711Z,78.34
2018-02-09T12:54:48.696Z,76.89